Manawanui Hmnzs — ZMLR — position and weather

sailwx.info

Track history (hours):
 
Tides and Currents Weather Stations Pressure Air Temp Water Temp Dewpoint Dewpoint Depression Visibility Wind Speed Wind Dir Waves Ship Positions

Manawanui Hmnzs

Last reported at 2017-Oct-19 10:08 UTC. Time now 2017-Oct-20 10:55 UTC.
Position S 36°40' E 175°04'.

MMSI: 512000300.

Date/timePositionNaut miles runAvg speedWind from/ knotsBaromVisibWave heightAir tempDewpointWater temp
2017-Oct-19 10:08S 36°40' E 175°04'110.0
2017-Oct-19 09:59S 36°40' E 175°02'510.0
2017-Oct-19 09:30S 36°39' E 174°56'5 9.9
2017-Oct-19 09:00S 36°38' E 174°50'2 4.1
2017-Oct-19 08:30S 36°38' E 174°48'0 0.4
2017-Oct-19 08:00S 36°38' E 174°47'3 6.9
2017-Oct-19 07:30S 36°42' E 174°48'1 1.2
2017-Oct-19 06:55S 36°41' E 174°48'1 1.5
2017-Oct-19 06:30S 36°41' E 174°49'2 5.0
2017-Oct-19 06:00S 36°39' E 174°51'0 0.7
2017-Oct-19 05:30S 36°39' E 174°51'1 2.6
2017-Oct-19 05:00S 36°39' E 174°53'3 6.6
2017-Oct-19 04:30S 36°38' E 174°49'1 1.9
2017-Oct-19 04:00S 36°38' E 174°48'1 1.2
2017-Oct-19 03:30S 36°39' E 174°48'2 3.4
2017-Oct-19 02:55S 36°40' E 174°49'1 2.4
2017-Oct-19 02:26S 36°41' E 174°49'1 3.2
2017-Oct-19 02:00S 36°42' E 174°50'3 6.4
2017-Oct-19 01:30S 36°46' E 174°50'0 0.4
2017-Oct-19 01:00S 36°46' E 174°50'3 5.2
2017-Oct-19 00:22S 36°49' E 174°50'  
Track history (hours):
 
Tides and Currents Weather Stations Pressure Air Temp Water Temp Dewpoint Dewpoint Depression Visibility Wind Speed Wind Dir Waves Ship Positions

Manawanui Hmnzs

Last reported at 2017-Oct-19 10:08 UTC. Time now 2017-Oct-20 10:55 UTC.
Position S 36°40' E 175°04'.

MMSI: 512000300.

Date/timePositionNaut miles runAvg speedWind from/ knotsBaromVisibWave heightAir tempDewpointWater temp
2017-Oct-19 10:08S 36°40' E 175°04'110.0
2017-Oct-19 09:59S 36°40' E 175°02'510.0
2017-Oct-19 09:30S 36°39' E 174°56'5 9.9
2017-Oct-19 09:00S 36°38' E 174°50'2 4.1
2017-Oct-19 08:30S 36°38' E 174°48'0 0.4
2017-Oct-19 08:00S 36°38' E 174°47'3 6.9
2017-Oct-19 07:30S 36°42' E 174°48'1 1.2
2017-Oct-19 06:55S 36°41' E 174°48'1 1.5
2017-Oct-19 06:30S 36°41' E 174°49'2 5.0
2017-Oct-19 06:00S 36°39' E 174°51'0 0.7
2017-Oct-19 05:30S 36°39' E 174°51'1 2.6
2017-Oct-19 05:00S 36°39' E 174°53'3 6.6
2017-Oct-19 04:30S 36°38' E 174°49'1 1.9
2017-Oct-19 04:00S 36°38' E 174°48'1 1.2
2017-Oct-19 03:30S 36°39' E 174°48'2 3.4
2017-Oct-19 02:55S 36°40' E 174°49'1 2.4
2017-Oct-19 02:26S 36°41' E 174°49'1 3.2
2017-Oct-19 02:00S 36°42' E 174°50'3 6.4
2017-Oct-19 01:30S 36°46' E 174°50'0 0.4
2017-Oct-19 01:00S 36°46' E 174°50'3 5.2
2017-Oct-19 00:22S 36°49' E 174°50'  

Dump ship's entire track history